sensor_id;sensor_type;location;lat;lon;timestamp;temperature;humidity
56298;DHT22;42208;6.376;-10.782;2022-10-16T00:01:28;23.50;99.90
56298;DHT22;42208;6.376;-10.782;2022-10-16T00:04:01;23.40;99.90
56298;DHT22;42208;6.376;-10.782;2022-10-16T00:06:30;23.50;99.90
56298;DHT22;42208;6.376;-10.782;2022-10-16T00:08:59;23.50;99.90
56298;DHT22;42208;6.376;-10.782;2022-10-16T00:11:30;23.40;99.90
56298;DHT22;42208;6.376;-10.782;2022-10-16T00:14:00;23.50;99.90
56298;DHT22;42208;6.376;-10.782;2022-10-16T00:16:28;23.50;99.90
56298;DHT22;42208;6.376;-10.782;2022-10-16T00:18:57;23.50;99.90
56298;DHT22;42208;6.376;-10.782;2022-10-16T00:21:28;23.50;99.90
56298;DHT22;42208;6.376;-10.782;2022-10-16T00:24:06;23.50;99.90
56298;DHT22;42208;6.376;-10.782;2022-10-16T00:26:36;23.60;99.90
56298;DHT22;42208;6.376;-10.782;2022-10-16T00:29:05;23.60;99.90
56298;DHT22;42208;6.376;-10.782;2022-10-16T00:31:33;23.50;99.90
56298;DHT22;42208;6.376;-10.782;2022-10-16T00:34:01;23.50;99.90
56298;DHT22;42208;6.376;-10.782;2022-10-16T00:36:29;23.60;99.90
56298;DHT22;42208;6.376;-10.782;2022-10-16T00:38:58;23.50;99.90
56298;DHT22;42208;6.376;-10.782;2022-10-16T00:41:28;23.60;99.90
56298;DHT22;42208;6.376;-10.782;2022-10-16T00:43:58;23.50;99.90
56298;DHT22;42208;6.376;-10.782;2022-10-16T00:46:42;23.50;99.90
56298;DHT22;42208;6.376;-10.782;2022-10-16T00:49:15;23.50;99.90
56298;DHT22;42208;6.376;-10.782;2022-10-16T00:51:48;23.50;99.90
56298;DHT22;42208;6.376;-10.782;2022-10-16T00:54:23;23.50;99.90
56298;DHT22;42208;6.376;-10.782;2022-10-16T00:56:53;23.50;99.90
56298;DHT22;42208;6.376;-10.782;2022-10-16T00:59:37;23.50;99.90
56298;DHT22;42208;6.376;-10.782;2022-10-16T01:02:09;23.50;99.90
56298;DHT22;42208;6.376;-10.782;2022-10-16T01:04:41;23.50;99.90
56298;DHT22;42208;6.376;-10.782;2022-10-16T01:15:33;23.50;99.90
56298;DHT22;42208;6.376;-10.782;2022-10-16T01:18:28;23.50;99.90
56298;DHT22;42208;6.376;-10.782;2022-10-16T01:21:08;23.50;99.90
56298;DHT22;42208;6.376;-10.782;2022-10-16T01:32:05;23.60;99.90
56298;DHT22;42208;6.376;-10.782;2022-10-16T01:34:48;23.60;99.90
56298;DHT22;42208;6.376;-10.782;2022-10-16T01:37:39;23.50;99.90
56298;DHT22;42208;6.376;-10.782;2022-10-16T01:40:11;23.60;99.90
56298;DHT22;42208;6.376;-10.782;2022-10-16T01:42:47;23.60;99.90
56298;DHT22;42208;6.376;-10.782;2022-10-16T01:45:18;23.60;99.90
56298;DHT22;42208;6.376;-10.782;2022-10-16T01:47:48;23.60;99.90
56298;DHT22;42208;6.376;-10.782;2022-10-16T01:50:18;23.50;99.90
56298;DHT22;42208;6.376;-10.782;2022-10-16T01:52:50;23.50;99.90
56298;DHT22;42208;6.376;-10.782;2022-10-16T01:55:31;23.50;99.90
56298;DHT22;42208;6.376;-10.782;2022-10-16T01:58:02;23.50;99.90
56298;DHT22;42208;6.376;-10.782;2022-10-16T02:00:32;23.50;99.90
56298;DHT22;42208;6.376;-10.782;2022-10-16T02:03:02;23.60;99.90
56298;DHT22;42208;6.376;-10.782;2022-10-16T02:05:37;23.60;99.90
56298;DHT22;42208;6.376;-10.782;2022-10-16T02:08:07;23.60;99.90
56298;DHT22;42208;6.376;-10.782;2022-10-16T02:10:35;23.60;99.90
56298;DHT22;42208;6.376;-10.782;2022-10-16T02:15:39;23.60;99.90
56298;DHT22;42208;6.376;-10.782;2022-10-16T02:18:08;23.60;99.90
56298;DHT22;42208;6.376;-10.782;2022-10-16T02:20:51;23.60;99.90
56298;DHT22;42208;6.376;-10.782;2022-10-16T02:23:35;23.60;99.90
56298;DHT22;42208;6.376;-10.782;2022-10-16T02:26:07;23.50;99.90
56298;DHT22;42208;6.376;-10.782;2022-10-16T02:28:46;23.50;99.90
56298;DHT22;42208;6.376;-10.782;2022-10-16T02:31:21;23.50;99.90
56298;DHT22;42208;6.376;-10.782;2022-10-16T02:33:51;23.60;99.90
56298;DHT22;42208;6.376;-10.782;2022-10-16T02:36:21;23.60;99.90
56298;DHT22;42208;6.376;-10.782;2022-10-16T02:38:49;23.60;99.90
56298;DHT22;42208;6.376;-10.782;2022-10-16T02:41:20;23.60;99.90
56298;DHT22;42208;6.376;-10.782;2022-10-16T02:43:48;23.60;99.90
56298;DHT22;42208;6.376;-10.782;2022-10-16T02:46:17;23.60;99.90
56298;DHT22;42208;6.376;-10.782;2022-10-16T02:48:46;23.60;99.90
56298;DHT22;42208;6.376;-10.782;2022-10-16T02:51:14;23.60;99.90
56298;DHT22;42208;6.376;-10.782;2022-10-16T02:53:42;23.60;99.90
56298;DHT22;42208;6.376;-10.782;2022-10-16T02:56:10;23.60;99.90
56298;DHT22;42208;6.376;-10.782;2022-10-16T02:58:39;23.50;99.90
56298;DHT22;42208;6.376;-10.782;2022-10-16T03:01:07;23.50;99.90
56298;DHT22;42208;6.376;-10.782;2022-10-16T03:03:35;23.50;99.90
56298;DHT22;42208;6.376;-10.782;2022-10-16T03:06:04;23.50;99.90
56298;DHT22;42208;6.376;-10.782;2022-10-16T03:08:32;23.60;99.90
56298;DHT22;42208;6.376;-10.782;2022-10-16T03:11:00;23.60;99.90
56298;DHT22;42208;6.376;-10.782;2022-10-16T03:13:28;23.60;99.90
56298;DHT22;42208;6.376;-10.782;2022-10-16T03:15:56;23.60;99.90
56298;DHT22;42208;6.376;-10.782;2022-10-16T03:18:24;23.60;99.90
56298;DHT22;42208;6.376;-10.782;2022-10-16T03:20:53;23.70;99.90
56298;DHT22;42208;6.376;-10.782;2022-10-16T03:23:21;23.60;99.90
56298;DHT22;42208;6.376;-10.782;2022-10-16T03:25:49;23.60;99.90
56298;DHT22;42208;6.376;-10.782;2022-10-16T03:28:17;23.70;99.90
56298;DHT22;42208;6.376;-10.782;2022-10-16T03:30:45;23.70;99.90
56298;DHT22;42208;6.376;-10.782;2022-10-16T03:33:13;23.60;99.90
56298;DHT22;42208;6.376;-10.782;2022-10-16T03:35:42;23.60;99.90
56298;DHT22;42208;6.376;-10.782;2022-10-16T03:38:10;23.70;99.90
56298;DHT22;42208;6.376;-10.782;2022-10-16T03:40:38;23.70;99.90
56298;DHT22;42208;6.376;-10.782;2022-10-16T03:43:06;23.70;99.90
56298;DHT22;42208;6.376;-10.782;2022-10-16T03:45:34;23.70;99.90
56298;DHT22;42208;6.376;-10.782;2022-10-16T03:48:03;23.70;99.90
56298;DHT22;42208;6.376;-10.782;2022-10-16T03:50:31;23.70;99.90
56298;DHT22;42208;6.376;-10.782;2022-10-16T03:52:59;23.80;99.90
56298;DHT22;42208;6.376;-10.782;2022-10-16T03:55:27;23.80;99.90
56298;DHT22;42208;6.376;-10.782;2022-10-16T03:57:55;23.70;99.90
56298;DHT22;42208;6.376;-10.782;2022-10-16T04:00:23;23.70;99.90
56298;DHT22;42208;6.376;-10.782;2022-10-16T04:02:51;23.70;99.90
56298;DHT22;42208;6.376;-10.782;2022-10-16T04:05:20;23.70;99.90
56298;DHT22;42208;6.376;-10.782;2022-10-16T04:07:48;23.60;99.90
56298;DHT22;42208;6.376;-10.782;2022-10-16T04:10:16;23.60;99.90
56298;DHT22;42208;6.376;-10.782;2022-10-16T04:12:45;23.60;99.90
56298;DHT22;42208;6.376;-10.782;2022-10-16T04:15:13;23.60;99.90
56298;DHT22;42208;6.376;-10.782;2022-10-16T04:17:41;23.60;99.90
56298;DHT22;42208;6.376;-10.782;2022-10-16T04:20:09;23.60;99.90
56298;DHT22;42208;6.376;-10.782;2022-10-16T04:22:37;23.70;99.90
56298;DHT22;42208;6.376;-10.782;2022-10-16T04:25:06;23.70;99.90
56298;DHT22;42208;6.376;-10.782;2022-10-16T04:27:34;23.60;99.90
56298;DHT22;42208;6.376;-10.782;2022-10-16T04:30:02;23.70;99.90
56298;DHT22;42208;6.376;-10.782;2022-10-16T04:32:31;23.70;99.90
56298;DHT22;42208;6.376;-10.782;2022-10-16T04:34:59;23.70;99.90
56298;DHT22;42208;6.376;-10.782;2022-10-16T04:37:27;23.70;99.90
56298;DHT22;42208;6.376;-10.782;2022-10-16T04:39:55;23.70;99.90
56298;DHT22;42208;6.376;-10.782;2022-10-16T04:42:24;23.70;99.90
56298;DHT22;42208;6.376;-10.782;2022-10-16T04:44:52;23.70;99.90
56298;DHT22;42208;6.376;-10.782;2022-10-16T04:47:20;23.70;99.90
56298;DHT22;42208;6.376;-10.782;2022-10-16T04:49:48;23.60;99.90
56298;DHT22;42208;6.376;-10.782;2022-10-16T04:52:16;23.60;99.90
56298;DHT22;42208;6.376;-10.782;2022-10-16T04:54:44;23.60;99.90
56298;DHT22;42208;6.376;-10.782;2022-10-16T04:57:13;23.60;99.90
56298;DHT22;42208;6.376;-10.782;2022-10-16T04:59:41;23.60;99.90
56298;DHT22;42208;6.376;-10.782;2022-10-16T05:02:09;23.60;99.90
56298;DHT22;42208;6.376;-10.782;2022-10-16T05:04:38;23.60;99.90
56298;DHT22;42208;6.376;-10.782;2022-10-16T05:07:06;23.60;99.90
56298;DHT22;42208;6.376;-10.782;2022-10-16T05:09:34;23.60;99.90
56298;DHT22;42208;6.376;-10.782;2022-10-16T05:12:02;23.70;99.90
56298;DHT22;42208;6.376;-10.782;2022-10-16T05:14:31;23.70;99.90
56298;DHT22;42208;6.376;-10.782;2022-10-16T05:16:59;23.70;99.90
56298;DHT22;42208;6.376;-10.782;2022-10-16T05:19:28;23.70;99.90
56298;DHT22;42208;6.376;-10.782;2022-10-16T05:21:56;23.60;99.90
56298;DHT22;42208;6.376;-10.782;2022-10-16T05:24:24;23.70;99.90
56298;DHT22;42208;6.376;-10.782;2022-10-16T05:26:52;23.70;99.90
56298;DHT22;42208;6.376;-10.782;2022-10-16T05:29:21;23.70;99.90
56298;DHT22;42208;6.376;-10.782;2022-10-16T05:31:53;23.60;99.90
56298;DHT22;42208;6.376;-10.782;2022-10-16T05:34:21;23.60;99.90
56298;DHT22;42208;6.376;-10.782;2022-10-16T05:36:49;23.60;99.90
56298;DHT22;42208;6.376;-10.782;2022-10-16T05:39:17;23.60;99.90
56298;DHT22;42208;6.376;-10.782;2022-10-16T05:41:46;23.60;99.90
56298;DHT22;42208;6.376;-10.782;2022-10-16T05:44:14;23.60;99.90
56298;DHT22;42208;6.376;-10.782;2022-10-16T05:46:42;23.60;99.90
56298;DHT22;42208;6.376;-10.782;2022-10-16T05:49:10;23.60;99.90
56298;DHT22;42208;6.376;-10.782;2022-10-16T05:51:38;23.60;99.90
56298;DHT22;42208;6.376;-10.782;2022-10-16T05:54:07;23.60;99.90
56298;DHT22;42208;6.376;-10.782;2022-10-16T05:56:35;23.60;99.90
56298;DHT22;42208;6.376;-10.782;2022-10-16T05:59:04;23.50;99.90
56298;DHT22;42208;6.376;-10.782;2022-10-16T06:01:32;23.50;99.90
56298;DHT22;42208;6.376;-10.782;2022-10-16T06:04:01;23.50;99.90
56298;DHT22;42208;6.376;-10.782;2022-10-16T06:06:29;23.50;99.90
56298;DHT22;42208;6.376;-10.782;2022-10-16T06:08:58;23.50;99.90
56298;DHT22;42208;6.376;-10.782;2022-10-16T06:11:28;23.50;99.90
56298;DHT22;42208;6.376;-10.782;2022-10-16T06:13:59;23.50;99.90
56298;DHT22;42208;6.376;-10.782;2022-10-16T06:16:28;23.50;99.90
56298;DHT22;42208;6.376;-10.782;2022-10-16T06:18:56;23.50;99.90
56298;DHT22;42208;6.376;-10.782;2022-10-16T06:21:25;23.50;99.90
56298;DHT22;42208;6.376;-10.782;2022-10-16T06:23:55;23.50;99.90
56298;DHT22;42208;6.376;-10.782;2022-10-16T06:26:26;23.50;99.90
56298;DHT22;42208;6.376;-10.782;2022-10-16T06:28:55;23.50;99.90
56298;DHT22;42208;6.376;-10.782;2022-10-16T06:31:25;23.50;99.90
56298;DHT22;42208;6.376;-10.782;2022-10-16T06:33:54;23.60;99.90
56298;DHT22;42208;6.376;-10.782;2022-10-16T06:36:23;23.60;99.90
56298;DHT22;42208;6.376;-10.782;2022-10-16T06:38:51;23.60;99.90
56298;DHT22;42208;6.376;-10.782;2022-10-16T06:41:21;23.60;99.90
56298;DHT22;42208;6.376;-10.782;2022-10-16T06:43:50;23.60;99.90
56298;DHT22;42208;6.376;-10.782;2022-10-16T06:46:21;23.50;99.90
56298;DHT22;42208;6.376;-10.782;2022-10-16T06:48:50;23.50;99.90
56298;DHT22;42208;6.376;-10.782;2022-10-16T06:51:21;23.50;99.90
56298;DHT22;42208;6.376;-10.782;2022-10-16T06:53:51;23.60;99.90
56298;DHT22;42208;6.376;-10.782;2022-10-16T06:56:31;23.60;99.90
56298;DHT22;42208;6.376;-10.782;2022-10-16T06:58:59;23.60;99.90
56298;DHT22;42208;6.376;-10.782;2022-10-16T07:01:29;23.50;99.90
56298;DHT22;42208;6.376;-10.782;2022-10-16T07:03:57;23.60;99.90
56298;DHT22;42208;6.376;-10.782;2022-10-16T07:06:26;23.60;99.90
56298;DHT22;42208;6.376;-10.782;2022-10-16T07:08:54;23.70;99.90
56298;DHT22;42208;6.376;-10.782;2022-10-16T07:11:24;23.70;99.90
56298;DHT22;42208;6.376;-10.782;2022-10-16T07:13:52;23.70;99.90
56298;DHT22;42208;6.376;-10.782;2022-10-16T07:16:25;23.70;99.90
56298;DHT22;42208;6.376;-10.782;2022-10-16T07:18:55;23.80;99.90
56298;DHT22;42208;6.376;-10.782;2022-10-16T07:21:24;23.80;99.90
56298;DHT22;42208;6.376;-10.782;2022-10-16T07:23:53;23.90;99.90
56298;DHT22;42208;6.376;-10.782;2022-10-16T07:26:23;24.00;99.90
56298;DHT22;42208;6.376;-10.782;2022-10-16T07:28:51;24.00;99.90
56298;DHT22;42208;6.376;-10.782;2022-10-16T07:31:22;24.00;99.90
56298;DHT22;42208;6.376;-10.782;2022-10-16T07:33:51;24.00;99.90
56298;DHT22;42208;6.376;-10.782;2022-10-16T07:36:20;24.10;99.90
56298;DHT22;42208;6.376;-10.782;2022-10-16T07:38:49;24.10;99.90
56298;DHT22;42208;6.376;-10.782;2022-10-16T07:41:21;24.20;99.90
56298;DHT22;42208;6.376;-10.782;2022-10-16T07:43:52;24.20;99.90
56298;DHT22;42208;6.376;-10.782;2022-10-16T07:46:22;24.30;99.90
56298;DHT22;42208;6.376;-10.782;2022-10-16T07:48:50;24.30;99.90
56298;DHT22;42208;6.376;-10.782;2022-10-16T07:51:21;24.40;99.90
56298;DHT22;42208;6.376;-10.782;2022-10-16T07:53:50;24.40;99.90
56298;DHT22;42208;6.376;-10.782;2022-10-16T07:56:19;24.40;99.90
56298;DHT22;42208;6.376;-10.782;2022-10-16T07:58:47;24.40;99.90
56298;DHT22;42208;6.376;-10.782;2022-10-16T08:01:16;24.50;99.90
56298;DHT22;42208;6.376;-10.782;2022-10-16T08:03:47;24.50;99.90
56298;DHT22;42208;6.376;-10.782;2022-10-16T08:06:16;24.50;99.90
56298;DHT22;42208;6.376;-10.782;2022-10-16T08:08:50;24.50;99.90
56298;DHT22;42208;6.376;-10.782;2022-10-16T08:11:18;24.50;99.90
56298;DHT22;42208;6.376;-10.782;2022-10-16T08:13:46;24.50;99.90
56298;DHT22;42208;6.376;-10.782;2022-10-16T08:16:14;24.60;99.90
56298;DHT22;42208;6.376;-10.782;2022-10-16T08:18:43;24.60;99.90
56298;DHT22;42208;6.376;-10.782;2022-10-16T08:21:17;24.60;99.90
56298;DHT22;42208;6.376;-10.782;2022-10-16T08:23:49;24.60;99.90
56298;DHT22;42208;6.376;-10.782;2022-10-16T08:26:25;24.60;99.90
56298;DHT22;42208;6.376;-10.782;2022-10-16T08:28:54;24.70;99.90
56298;DHT22;42208;6.376;-10.782;2022-10-16T08:31:23;24.70;99.90
56298;DHT22;42208;6.376;-10.782;2022-10-16T08:33:51;24.80;99.90
56298;DHT22;42208;6.376;-10.782;2022-10-16T08:36:20;24.80;99.90
56298;DHT22;42208;6.376;-10.782;2022-10-16T08:38:49;24.90;99.90
56298;DHT22;42208;6.376;-10.782;2022-10-16T08:44:16;24.90;99.90
56298;DHT22;42208;6.376;-10.782;2022-10-16T08:47:13;25.00;99.90
56298;DHT22;42208;6.376;-10.782;2022-10-16T08:49:46;25.00;99.90
56298;DHT22;42208;6.376;-10.782;2022-10-16T08:52:19;25.10;99.90
56298;DHT22;42208;6.376;-10.782;2022-10-16T08:54:51;25.10;99.90
56298;DHT22;42208;6.376;-10.782;2022-10-16T08:57:24;25.10;99.90
56298;DHT22;42208;6.376;-10.782;2022-10-16T08:59:53;25.20;99.90
56298;DHT22;42208;6.376;-10.782;2022-10-16T09:05:17;25.30;99.90
56298;DHT22;42208;6.376;-10.782;2022-10-16T09:13:48;25.50;99.90
56298;DHT22;42208;6.376;-10.782;2022-10-16T09:16:31;25.60;99.90
56298;DHT22;42208;6.376;-10.782;2022-10-16T09:21:44;25.90;99.90
56298;DHT22;42208;6.376;-10.782;2022-10-16T09:24:17;26.00;99.90
56298;DHT22;42208;6.376;-10.782;2022-10-16T09:26:47;26.10;99.90
56298;DHT22;42208;6.376;-10.782;2022-10-16T09:29:20;26.20;99.90
56298;DHT22;42208;6.376;-10.782;2022-10-16T09:31:48;26.30;99.90
56298;DHT22;42208;6.376;-10.782;2022-10-16T09:34:26;26.40;99.90
56298;DHT22;42208;6.376;-10.782;2022-10-16T09:37:05;26.50;99.90
56298;DHT22;42208;6.376;-10.782;2022-10-16T09:39:51;26.40;99.90
56298;DHT22;42208;6.376;-10.782;2022-10-16T09:42:23;26.30;99.90
56298;DHT22;42208;6.376;-10.782;2022-10-16T09:44:54;26.30;99.90
56298;DHT22;42208;6.376;-10.782;2022-10-16T09:47:26;26.30;99.90
56298;DHT22;42208;6.376;-10.782;2022-10-16T09:50:19;26.40;99.90
56298;DHT22;42208;6.376;-10.782;2022-10-16T09:52:47;26.40;99.90
56298;DHT22;42208;6.376;-10.782;2022-10-16T09:55:17;26.40;99.90
56298;DHT22;42208;6.376;-10.782;2022-10-16T09:57:54;26.50;99.90
56298;DHT22;42208;6.376;-10.782;2022-10-16T10:00:23;26.60;99.90
56298;DHT22;42208;6.376;-10.782;2022-10-16T10:02:53;26.70;99.90
56298;DHT22;42208;6.376;-10.782;2022-10-16T10:05:28;26.90;99.90
56298;DHT22;42208;6.376;-10.782;2022-10-16T10:08:01;27.10;99.90
56298;DHT22;42208;6.376;-10.782;2022-10-16T10:10:32;27.20;99.90
56298;DHT22;42208;6.376;-10.782;2022-10-16T10:13:00;27.40;99.90
56298;DHT22;42208;6.376;-10.782;2022-10-16T10:15:33;27.50;99.90
56298;DHT22;42208;6.376;-10.782;2022-10-16T10:18:02;27.50;99.90
56298;DHT22;42208;6.376;-10.782;2022-10-16T10:20:33;27.70;99.90
56298;DHT22;42208;6.376;-10.782;2022-10-16T10:23:26;27.70;99.90
56298;DHT22;42208;6.376;-10.782;2022-10-16T10:26:36;27.70;99.90
56298;DHT22;42208;6.376;-10.782;2022-10-16T10:32:15;27.70;99.90
56298;DHT22;42208;6.376;-10.782;2022-10-16T10:40:49;27.70;99.90
56298;DHT22;42208;6.376;-10.782;2022-10-16T10:43:30;27.70;99.90
56298;DHT22;42208;6.376;-10.782;2022-10-16T10:46:05;27.70;99.90
56298;DHT22;42208;6.376;-10.782;2022-10-16T10:49:01;27.60;99.90
56298;DHT22;42208;6.376;-10.782;2022-10-16T10:57:17;27.60;99.90
56298;DHT22;42208;6.376;-10.782;2022-10-16T11:02:34;27.80;99.90
56298;DHT22;42208;6.376;-10.782;2022-10-16T11:08:10;27.80;99.90
56298;DHT22;42208;6.376;-10.782;2022-10-16T11:10:58;27.90;99.90
56298;DHT22;42208;6.376;-10.782;2022-10-16T11:16:15;28.10;99.90
56298;DHT22;42208;6.376;-10.782;2022-10-16T11:21:35;28.10;99.90
56298;DHT22;42208;6.376;-10.782;2022-10-16T11:24:22;28.10;99.90
56298;DHT22;42208;6.376;-10.782;2022-10-16T11:26:54;28.10;99.90
56298;DHT22;42208;6.376;-10.782;2022-10-16T11:29:27;28.10;99.90
56298;DHT22;42208;6.376;-10.782;2022-10-16T11:32:18;28.10;99.90
56298;DHT22;42208;6.376;-10.782;2022-10-16T11:34:59;28.20;99.90
56298;DHT22;42208;6.376;-10.782;2022-10-16T11:37:36;28.20;99.90
56298;DHT22;42208;6.376;-10.782;2022-10-16T11:40:32;28.10;99.90
56298;DHT22;42208;6.376;-10.782;2022-10-16T11:43:28;28.20;99.90
56298;DHT22;42208;6.376;-10.782;2022-10-16T11:46:02;28.30;99.90
56298;DHT22;42208;6.376;-10.782;2022-10-16T11:48:57;28.20;99.90
56298;DHT22;42208;6.376;-10.782;2022-10-16T11:51:48;28.20;99.90
56298;DHT22;42208;6.376;-10.782;2022-10-16T11:57:23;28.30;99.90
56298;DHT22;42208;6.376;-10.782;2022-10-16T12:00:02;28.30;99.90
56298;DHT22;42208;6.376;-10.782;2022-10-16T12:08:52;28.30;99.90
56298;DHT22;42208;6.376;-10.782;2022-10-16T12:11:37;28.30;99.90
56298;DHT22;42208;6.376;-10.782;2022-10-16T12:19:21;28.20;99.90
56298;DHT22;42208;6.376;-10.782;2022-10-16T12:21:51;28.20;99.90
56298;DHT22;42208;6.376;-10.782;2022-10-16T12:24:35;28.30;99.90
56298;DHT22;42208;6.376;-10.782;2022-10-16T12:27:06;28.40;99.90
56298;DHT22;42208;6.376;-10.782;2022-10-16T12:29:39;28.40;99.90
56298;DHT22;42208;6.376;-10.782;2022-10-16T12:32:31;28.40;99.90
56298;DHT22;42208;6.376;-10.782;2022-10-16T12:35:21;28.60;99.90
56298;DHT22;42208;6.376;-10.782;2022-10-16T12:37:51;28.50;99.90
56298;DHT22;42208;6.376;-10.782;2022-10-16T12:40:30;28.50;99.90
56298;DHT22;42208;6.376;-10.782;2022-10-16T12:42:59;28.50;99.90
56298;DHT22;42208;6.376;-10.782;2022-10-16T12:45:38;28.70;99.90
56298;DHT22;42208;6.376;-10.782;2022-10-16T12:48:19;28.60;99.90
56298;DHT22;42208;6.376;-10.782;2022-10-16T12:50:48;28.70;99.90
56298;DHT22;42208;6.376;-10.782;2022-10-16T12:53:26;28.70;99.90
56298;DHT22;42208;6.376;-10.782;2022-10-16T12:56:16;28.70;99.90
56298;DHT22;42208;6.376;-10.782;2022-10-16T12:59:48;28.80;99.90
56298;DHT22;42208;6.376;-10.782;2022-10-16T13:16:26;28.90;99.90
56298;DHT22;42208;6.376;-10.782;2022-10-16T13:21:50;29.10;99.90
56298;DHT22;42208;6.376;-10.782;2022-10-16T13:24:36;29.10;99.90
56298;DHT22;42208;6.376;-10.782;2022-10-16T13:29:46;29.20;99.90
56298;DHT22;42208;6.376;-10.782;2022-10-16T13:32:20;29.20;99.90
56298;DHT22;42208;6.376;-10.782;2022-10-16T13:34:49;29.10;99.90
56298;DHT22;42208;6.376;-10.782;2022-10-16T13:37:23;29.10;99.90
56298;DHT22;42208;6.376;-10.782;2022-10-16T13:40:24;29.00;99.90
56298;DHT22;42208;6.376;-10.782;2022-10-16T13:42:51;29.00;99.90
56298;DHT22;42208;6.376;-10.782;2022-10-16T13:45:23;29.10;99.90
56298;DHT22;42208;6.376;-10.782;2022-10-16T13:48:05;29.10;99.90
56298;DHT22;42208;6.376;-10.782;2022-10-16T13:50:34;29.10;99.90
56298;DHT22;42208;6.376;-10.782;2022-10-16T13:53:06;29.30;99.90
56298;DHT22;42208;6.376;-10.782;2022-10-16T13:55:38;29.20;99.90
56298;DHT22;42208;6.376;-10.782;2022-10-16T13:58:13;29.30;99.90
56298;DHT22;42208;6.376;-10.782;2022-10-16T14:01:03;29.40;99.90
56298;DHT22;42208;6.376;-10.782;2022-10-16T14:03:32;29.40;99.90
56298;DHT22;42208;6.376;-10.782;2022-10-16T14:06:04;29.60;99.90
56298;DHT22;42208;6.376;-10.782;2022-10-16T14:08:34;29.80;99.90
56298;DHT22;42208;6.376;-10.782;2022-10-16T14:11:03;29.70;99.90
56298;DHT22;42208;6.376;-10.782;2022-10-16T14:13:36;29.70;99.90
56298;DHT22;42208;6.376;-10.782;2022-10-16T14:16:10;29.70;99.90
56298;DHT22;42208;6.376;-10.782;2022-10-16T14:18:55;29.90;99.90
56298;DHT22;42208;6.376;-10.782;2022-10-16T14:21:24;30.00;99.90
56298;DHT22;42208;6.376;-10.782;2022-10-16T14:23:53;30.20;99.90
56298;DHT22;42208;6.376;-10.782;2022-10-16T14:26:27;30.10;99.90
56298;DHT22;42208;6.376;-10.782;2022-10-16T14:29:11;30.30;99.90
56298;DHT22;42208;6.376;-10.782;2022-10-16T14:31:40;30.30;99.90
56298;DHT22;42208;6.376;-10.782;2022-10-16T14:34:29;30.40;99.90
56298;DHT22;42208;6.376;-10.782;2022-10-16T14:37:18;30.60;99.90
56298;DHT22;42208;6.376;-10.782;2022-10-16T14:39:55;30.30;99.90
56298;DHT22;42208;6.376;-10.782;2022-10-16T14:42:24;30.30;99.90
56298;DHT22;42208;6.376;-10.782;2022-10-16T14:44:54;30.20;99.90
56298;DHT22;42208;6.376;-10.782;2022-10-16T14:47:24;30.20;99.90
56298;DHT22;42208;6.376;-10.782;2022-10-16T14:49:54;30.00;99.90
56298;DHT22;42208;6.376;-10.782;2022-10-16T14:52:22;29.90;99.90
56298;DHT22;42208;6.376;-10.782;2022-10-16T14:54:51;29.80;99.90
56298;DHT22;42208;6.376;-10.782;2022-10-16T14:57:22;29.90;99.90
56298;DHT22;42208;6.376;-10.782;2022-10-16T14:59:51;30.20;99.90
56298;DHT22;42208;6.376;-10.782;2022-10-16T15:02:31;30.40;99.90
56298;DHT22;42208;6.376;-10.782;2022-10-16T15:05:13;30.50;99.90
56298;DHT22;42208;6.376;-10.782;2022-10-16T15:07:41;30.50;99.90
56298;DHT22;42208;6.376;-10.782;2022-10-16T15:10:10;30.70;99.90
56298;DHT22;42208;6.376;-10.782;2022-10-16T15:12:38;30.90;99.90
56298;DHT22;42208;6.376;-10.782;2022-10-16T15:15:23;31.20;99.90
56298;DHT22;42208;6.376;-10.782;2022-10-16T15:17:53;31.30;99.90
56298;DHT22;42208;6.376;-10.782;2022-10-16T15:20:27;31.00;99.90
56298;DHT22;42208;6.376;-10.782;2022-10-16T15:22:56;30.90;99.90
56298;DHT22;42208;6.376;-10.782;2022-10-16T15:25:45;30.80;99.90
56298;DHT22;42208;6.376;-10.782;2022-10-16T15:28:15;30.70;99.90
56298;DHT22;42208;6.376;-10.782;2022-10-16T15:30:44;30.80;99.90
56298;DHT22;42208;6.376;-10.782;2022-10-16T15:33:19;31.00;99.90
56298;DHT22;42208;6.376;-10.782;2022-10-16T15:35:49;30.60;99.90
56298;DHT22;42208;6.376;-10.782;2022-10-16T15:38:19;30.30;99.90
56298;DHT22;42208;6.376;-10.782;2022-10-16T15:40:48;30.70;99.90
56298;DHT22;42208;6.376;-10.782;2022-10-16T15:43:16;31.20;99.90
56298;DHT22;42208;6.376;-10.782;2022-10-16T15:46:00;31.40;99.90
56298;DHT22;42208;6.376;-10.782;2022-10-16T15:48:29;31.50;99.90
56298;DHT22;42208;6.376;-10.782;2022-10-16T15:50:58;32.10;99.90
56298;DHT22;42208;6.376;-10.782;2022-10-16T15:53:27;32.90;99.90
56298;DHT22;42208;6.376;-10.782;2022-10-16T15:55:55;33.20;99.90
56298;DHT22;42208;6.376;-10.782;2022-10-16T15:58:23;33.50;99.90
56298;DHT22;42208;6.376;-10.782;2022-10-16T16:00:58;33.40;99.90
56298;DHT22;42208;6.376;-10.782;2022-10-16T16:03:27;33.80;99.90
56298;DHT22;42208;6.376;-10.782;2022-10-16T16:05:56;33.80;99.90
56298;DHT22;42208;6.376;-10.782;2022-10-16T16:08:24;32.90;99.90
56298;DHT22;42208;6.376;-10.782;2022-10-16T16:11:12;32.90;99.90
56298;DHT22;42208;6.376;-10.782;2022-10-16T16:13:41;33.10;99.90
56298;DHT22;42208;6.376;-10.782;2022-10-16T16:16:11;33.70;99.90
56298;DHT22;42208;6.376;-10.782;2022-10-16T16:18:41;33.60;99.90
56298;DHT22;42208;6.376;-10.782;2022-10-16T16:21:11;33.00;99.90
56298;DHT22;42208;6.376;-10.782;2022-10-16T16:23:40;32.20;99.90
56298;DHT22;42208;6.376;-10.782;2022-10-16T16:26:18;32.00;99.90
56298;DHT22;42208;6.376;-10.782;2022-10-16T16:28:49;32.10;99.90
56298;DHT22;42208;6.376;-10.782;2022-10-16T16:31:18;32.00;99.90
56298;DHT22;42208;6.376;-10.782;2022-10-16T16:33:46;32.10;99.90
56298;DHT22;42208;6.376;-10.782;2022-10-16T16:36:14;32.10;99.90
56298;DHT22;42208;6.376;-10.782;2022-10-16T16:38:42;31.70;99.90
56298;DHT22;42208;6.376;-10.782;2022-10-16T16:41:16;31.60;99.90
56298;DHT22;42208;6.376;-10.782;2022-10-16T16:43:45;31.60;99.90
56298;DHT22;42208;6.376;-10.782;2022-10-16T16:46:14;31.70;99.90
56298;DHT22;42208;6.376;-10.782;2022-10-16T16:48:43;31.50;99.90
56298;DHT22;42208;6.376;-10.782;2022-10-16T16:51:13;31.50;99.90
56298;DHT22;42208;6.376;-10.782;2022-10-16T16:53:43;31.50;99.90
56298;DHT22;42208;6.376;-10.782;2022-10-16T16:56:12;31.40;99.90
56298;DHT22;42208;6.376;-10.782;2022-10-16T16:58:40;31.10;99.90
56298;DHT22;42208;6.376;-10.782;2022-10-16T17:01:10;30.90;99.90
56298;DHT22;42208;6.376;-10.782;2022-10-16T17:03:49;30.80;99.90
56298;DHT22;42208;6.376;-10.782;2022-10-16T17:06:19;31.00;99.90
56298;DHT22;42208;6.376;-10.782;2022-10-16T17:08:49;30.80;99.90
56298;DHT22;42208;6.376;-10.782;2022-10-16T17:11:20;30.80;99.90
56298;DHT22;42208;6.376;-10.782;2022-10-16T17:13:49;30.40;99.90
56298;DHT22;42208;6.376;-10.782;2022-10-16T17:16:29;30.10;99.90
56298;DHT22;42208;6.376;-10.782;2022-10-16T17:19:00;29.50;99.90
56298;DHT22;42208;6.376;-10.782;2022-10-16T17:21:28;29.30;99.90